createdAt,value
2023-04-02T00:00:11.001Z,3.59
2023-04-02T00:03:10.439Z,3.56
2023-04-02T00:05:51.025Z,3.57
2023-04-02T00:08:23.786Z,3.48
2023-04-02T00:10:59.160Z,3.56
2023-04-02T00:13:45.501Z,3.54
2023-04-02T00:16:24.540Z,3.62
2023-04-02T00:18:56.245Z,3.55
2023-04-02T00:21:31.062Z,3.62
2023-04-02T00:24:11.157Z,3.61
2023-04-02T00:26:45.526Z,3.74
2023-04-02T00:29:15.667Z,3.68
2023-04-02T00:31:51.197Z,3.68
2023-04-02T00:34:31.957Z,3.60
2023-04-02T00:37:00.045Z,3.65
2023-04-02T00:39:33.124Z,3.61
2023-04-02T00:42:06.871Z,3.65
2023-04-02T00:44:42.723Z,3.63
2023-04-02T00:47:26.914Z,3.68
2023-04-02T00:50:22.070Z,3.67
2023-04-02T00:52:53.784Z,3.68
2023-04-02T00:55:39.244Z,3.66
2023-04-02T00:58:26.626Z,3.73
2023-04-02T01:00:54.483Z,3.67
2023-04-02T01:03:28.693Z,3.66
2023-04-02T01:06:18.784Z,3.71
2023-04-02T01:09:15.964Z,3.58
2023-04-02T01:12:03.179Z,3.62
2023-04-02T01:15:03.773Z,3.66
2023-04-02T01:18:07.970Z,3.63
2023-04-02T01:20:51.891Z,3.62
2023-04-02T01:23:52.752Z,3.56
2023-04-02T01:26:41.803Z,3.59
2023-04-02T01:29:24.981Z,3.56
2023-04-02T01:31:58.850Z,3.62
2023-04-02T01:34:28.682Z,3.58
2023-04-02T01:37:27.388Z,3.59
2023-04-02T01:40:36.460Z,3.67
2023-04-02T01:43:35.820Z,3.57
2023-04-02T01:46:33.258Z,3.59
2023-04-02T01:49:16.092Z,3.65
2023-04-02T01:51:51.643Z,3.50
2023-04-02T01:54:22.214Z,3.53
2023-04-02T01:56:51.531Z,3.53
2023-04-02T01:59:23.127Z,3.55
2023-04-02T02:02:13.596Z,3.55
2023-04-02T02:04:42.319Z,3.57
2023-04-02T02:07:16.494Z,3.50
2023-04-02T02:09:48.592Z,3.64
2023-04-02T02:12:16.502Z,3.55
2023-04-02T02:14:52.506Z,3.55
2023-04-02T02:17:34.338Z,3.45
2023-04-02T02:20:10.929Z,3.48
2023-04-02T02:22:48.398Z,3.50
2023-04-02T02:25:21.593Z,3.62
2023-04-02T02:28:23.174Z,3.59
2023-04-02T02:30:58.884Z,3.59
2023-04-02T02:33:34.685Z,3.62
2023-04-02T02:36:15.029Z,3.55
2023-04-02T02:38:50.440Z,3.52
2023-04-02T02:41:41.614Z,3.57
2023-04-02T02:44:09.779Z,3.63
2023-04-02T02:46:52.758Z,3.64
2023-04-02T02:49:28.676Z,3.57
2023-04-02T02:52:09.198Z,3.57
2023-04-02T02:54:52.487Z,3.50
2023-04-02T02:57:30.053Z,3.57
2023-04-02T03:00:01.536Z,3.51
2023-04-02T03:02:36.104Z,3.47
2023-04-02T03:05:07.407Z,3.43
2023-04-02T03:07:37.297Z,3.41
2023-04-02T03:10:34.174Z,3.44
2023-04-02T03:13:22.927Z,3.48
2023-04-02T03:16:18.782Z,3.41
2023-04-02T03:19:00.114Z,3.42
2023-04-02T03:21:39.580Z,3.39
2023-04-02T03:24:54.630Z,3.39
2023-04-02T03:27:31.181Z,3.29
2023-04-02T03:30:46.425Z,3.23
2023-04-02T03:33:25.219Z,3.20
2023-04-02T03:36:31.030Z,3.26
2023-04-02T03:39:28.644Z,3.20
2023-04-02T03:42:16.375Z,3.26
2023-04-02T03:44:56.059Z,3.16
2023-04-02T03:47:45.190Z,3.18
2023-04-02T03:50:28.745Z,3.22
2023-04-02T03:53:03.074Z,3.19
2023-04-02T03:55:37.017Z,3.26
2023-04-02T03:58:38.835Z,3.20
2023-04-02T04:01:27.370Z,3.22
2023-04-02T04:04:06.632Z,3.19
2023-04-02T04:06:42.899Z,3.18
2023-04-02T04:09:36.322Z,3.25
2023-04-02T04:12:31.478Z,3.33
2023-04-02T04:15:25.565Z,3.36
2023-04-02T04:18:10.376Z,3.32
2023-04-02T04:20:46.146Z,3.26
2023-04-02T04:23:30.713Z,3.25
2023-04-02T04:26:19.777Z,3.23
2023-04-02T04:29:26.152Z,3.32
2023-04-02T04:31:58.885Z,3.30
2023-04-02T04:34:46.857Z,3.22
2023-04-02T04:37:41.044Z,3.21
2023-04-02T04:40:19.787Z,3.18
2023-04-02T04:42:53.512Z,3.22
2023-04-02T04:45:49.944Z,3.28
2023-04-02T04:48:54.158Z,3.34
2023-04-02T04:51:35.870Z,3.25
2023-04-02T04:54:04.009Z,3.30
2023-04-02T04:56:32.948Z,3.30
2023-04-02T04:59:27.317Z,3.29
2023-04-02T05:02:06.841Z,3.26
2023-04-02T05:04:41.427Z,3.22
2023-04-02T05:07:32.597Z,3.30
2023-04-02T05:10:24.708Z,3.38
2023-04-02T05:13:01.778Z,3.35
2023-04-02T05:15:49.958Z,3.32
2023-04-02T05:18:34.692Z,3.24
2023-04-02T05:21:26.281Z,3.26
2023-04-02T05:24:43.544Z,3.21
2023-04-02T05:27:36.451Z,3.28
2023-04-02T05:30:36.906Z,3.28
2023-04-02T05:33:22.091Z,3.33
2023-04-02T05:36:11.657Z,3.35
2023-04-02T05:38:48.963Z,3.41
2023-04-02T05:41:36.579Z,3.47
2023-04-02T05:44:58.293Z,3.40
2023-04-02T05:47:31.197Z,3.40
2023-04-02T05:50:09.512Z,3.32
2023-04-02T05:52:50.301Z,3.36
2023-04-02T05:55:39.668Z,3.50
2023-04-02T05:58:37.310Z,3.43
2023-04-02T06:01:53.579Z,3.38
2023-04-02T06:04:42.288Z,3.36
2023-04-02T06:07:18.070Z,3.46
2023-04-02T06:10:27.902Z,3.53
2023-04-02T06:13:07.154Z,3.43
2023-04-02T06:15:39.295Z,3.30
2023-04-02T06:18:35.618Z,3.30
2023-04-02T06:21:05.446Z,3.42
2023-04-02T06:23:51.368Z,3.40
2023-04-02T06:26:36.165Z,3.45
2023-04-02T06:29:12.534Z,3.55
2023-04-02T06:31:52.084Z,3.76
2023-04-02T06:34:25.859Z,3.70
2023-04-02T06:37:11.634Z,3.63
2023-04-02T06:39:39.486Z,3.75
2023-04-02T06:42:19.442Z,3.64
2023-04-02T06:45:21.047Z,3.61
2023-04-02T06:48:17.660Z,3.54
2023-04-02T06:51:10.418Z,3.55
2023-04-02T06:53:45.640Z,3.63
2023-04-02T06:56:46.097Z,3.72
2023-04-02T06:59:19.009Z,3.74
2023-04-02T07:02:00.460Z,3.67
2023-04-02T07:04:31.600Z,3.75
2023-04-02T07:07:03.034Z,3.74
2023-04-02T07:09:34.375Z,3.97
2023-04-02T07:12:12.639Z,3.92
2023-04-02T07:14:40.861Z,3.90
2023-04-02T07:17:17.752Z,3.90
2023-04-02T07:19:49.425Z,3.77
2023-04-02T07:22:20.771Z,3.69
2023-04-02T07:24:56.182Z,3.84
2023-04-02T07:27:23.968Z,3.92
2023-04-02T07:29:51.802Z,3.91
2023-04-02T07:32:19.846Z,4.00
2023-04-02T07:34:48.893Z,3.94
2023-04-02T07:37:17.048Z,3.86
2023-04-02T07:39:44.838Z,3.80
2023-04-02T07:42:12.953Z,3.91
2023-04-02T07:44:41.079Z,4.07
2023-04-02T07:47:10.528Z,4.11
2023-04-02T07:49:38.702Z,4.18
2023-04-02T07:52:06.886Z,4.17
2023-04-02T07:54:35.894Z,4.08
2023-04-02T07:57:04.041Z,4.02
2023-04-02T07:59:32.008Z,3.95
2023-04-02T08:01:59.915Z,4.05
2023-04-02T08:04:28.163Z,3.96
2023-04-02T08:06:56.076Z,3.93
2023-04-02T08:09:24.061Z,4.01
2023-04-02T08:11:51.871Z,4.14
2023-04-02T08:14:20.961Z,4.15
2023-04-02T08:16:53.013Z,4.14
2023-04-02T08:19:21.990Z,4.18
2023-04-02T08:21:51.664Z,4.33
2023-04-02T08:24:19.871Z,4.38
2023-04-02T08:26:49.973Z,4.47
2023-04-02T08:29:17.830Z,4.41
2023-04-02T08:31:46.160Z,4.42
2023-04-02T08:34:14.067Z,4.57
2023-04-02T08:36:45.045Z,4.49
2023-04-02T08:39:13.465Z,4.44
2023-04-02T08:41:56.324Z,4.48
2023-04-02T08:45:21.285Z,4.52
2023-04-02T08:47:56.539Z,4.49
2023-04-02T08:50:33.431Z,4.59
2023-04-02T08:53:06.566Z,4.60
2023-04-02T08:55:47.823Z,4.85
2023-04-02T08:58:33.137Z,4.78
2023-04-02T09:01:05.698Z,4.76
2023-04-02T09:03:42.769Z,4.88
2023-04-02T09:06:18.281Z,5.18
2023-04-02T09:08:50.159Z,5.44
2023-04-02T09:11:51.749Z,5.26
2023-04-02T09:14:27.365Z,5.24
2023-04-02T09:17:01.982Z,5.41
2023-04-02T09:19:38.848Z,5.41
2023-04-02T09:22:29.409Z,5.35
2023-04-02T09:25:04.670Z,5.26
2023-04-02T09:27:36.420Z,5.43
2023-04-02T09:30:08.205Z,5.65
2023-04-02T09:32:51.071Z,5.99
2023-04-02T09:35:26.886Z,5.86
2023-04-02T09:38:10.238Z,5.86
2023-04-02T09:41:02.025Z,5.90
2023-04-02T09:43:38.397Z,5.67
2023-04-02T09:46:23.324Z,5.62
2023-04-02T09:48:58.538Z,5.64
2023-04-02T09:51:31.748Z,5.68
2023-04-02T09:54:02.914Z,5.73
2023-04-02T09:56:36.589Z,5.84
2023-04-02T09:59:17.208Z,5.96
2023-04-02T10:01:50.548Z,5.93
2023-04-02T10:04:44.264Z,6.10
2023-04-02T10:07:41.391Z,6.24
2023-04-02T10:10:33.793Z,6.40
2023-04-02T10:13:24.981Z,6.60
2023-04-02T10:16:05.806Z,6.49
2023-04-02T10:18:49.477Z,6.51
2023-04-02T10:21:27.330Z,6.54
2023-04-02T10:23:59.238Z,6.39
2023-04-02T10:27:02.039Z,6.31
2023-04-02T10:29:37.120Z,6.27
2023-04-02T10:32:22.922Z,6.39
2023-04-02T10:35:03.621Z,6.46
2023-04-02T10:38:01.349Z,6.37
2023-04-02T10:40:46.496Z,6.25
2023-04-02T10:43:47.910Z,6.18
2023-04-02T10:46:30.303Z,6.16
2023-04-02T10:49:16.807Z,6.09
2023-04-02T10:51:47.401Z,6.07
2023-04-02T10:54:41.277Z,6.20
2023-04-02T10:57:19.536Z,6.32
2023-04-02T11:00:10.413Z,6.15
2023-04-02T11:03:15.802Z,6.06
2023-04-02T11:05:50.256Z,6.07
2023-04-02T11:08:41.987Z,6.25
2023-04-02T11:11:27.439Z,6.27
2023-04-02T11:13:57.997Z,6.49
2023-04-02T11:16:27.492Z,6.54
2023-04-02T11:19:17.309Z,6.62
2023-04-02T11:22:03.726Z,6.64
2023-04-02T11:24:45.856Z,6.46
2023-04-02T11:27:36.540Z,6.12
2023-04-02T11:30:26.198Z,6.13
2023-04-02T11:32:55.145Z,5.97
2023-04-02T11:35:30.640Z,6.06
2023-04-02T11:38:12.114Z,6.00
2023-04-02T11:40:58.146Z,6.14
2023-04-02T11:43:35.519Z,6.03
2023-04-02T11:46:29.254Z,5.92
2023-04-02T11:49:37.268Z,5.99
2023-04-02T11:52:36.601Z,6.21
2023-04-02T11:55:24.346Z,6.29
2023-04-02T11:58:06.927Z,6.39
2023-04-02T12:01:02.368Z,6.39
2023-04-02T12:04:15.399Z,6.41
2023-04-02T12:06:47.052Z,6.48
2023-04-02T12:09:31.464Z,6.47
2023-04-02T12:12:15.596Z,6.46
2023-04-02T12:14:48.745Z,6.38
2023-04-02T12:17:29.963Z,6.45
2023-04-02T12:20:08.113Z,6.39
2023-04-02T12:22:45.937Z,6.35
2023-04-02T12:25:40.099Z,6.25
2023-04-02T12:28:11.412Z,6.27
2023-04-02T12:30:40.333Z,6.14
2023-04-02T12:33:20.441Z,6.17
2023-04-02T12:35:54.716Z,6.45
2023-04-02T12:38:34.547Z,6.46
2023-04-02T12:41:18.571Z,6.55
2023-04-02T12:43:46.397Z,6.66
2023-04-02T12:46:14.847Z,6.69
2023-04-02T12:48:42.783Z,6.64
2023-04-02T12:51:11.040Z,6.63
2023-04-02T12:53:41.145Z,6.82
2023-04-02T12:56:22.205Z,6.81
2023-04-02T12:58:59.262Z,6.76
2023-04-02T13:01:31.552Z,6.94
2023-04-02T13:04:22.020Z,6.95
2023-04-02T13:06:54.836Z,6.83
2023-04-02T13:09:35.758Z,6.89
2023-04-02T13:12:04.094Z,6.88
2023-04-02T13:14:31.942Z,6.80
2023-04-02T13:16:59.825Z,6.80
2023-04-02T13:19:31.401Z,6.81
2023-04-02T13:22:02.745Z,6.75
2023-04-02T13:24:33.058Z,6.73
2023-04-02T13:27:03.508Z,6.77
2023-04-02T13:29:35.500Z,6.74
2023-04-02T13:32:07.735Z,6.71
2023-04-02T13:34:35.894Z,6.75
2023-04-02T13:37:03.746Z,6.65
2023-04-02T13:39:31.522Z,6.69
2023-04-02T13:42:02.683Z,6.63
2023-04-02T13:44:33.836Z,6.67
2023-04-02T13:47:01.813Z,6.72
2023-04-02T13:49:29.989Z,6.82
2023-04-02T13:52:03.128Z,6.76
2023-04-02T13:54:48.765Z,6.83
2023-04-02T13:57:17.508Z,6.89
2023-04-02T13:59:45.507Z,6.82
2023-04-02T14:02:21.639Z,6.76
2023-04-02T14:05:19.346Z,6.84
2023-04-02T14:08:19.068Z,6.87
2023-04-02T14:11:05.622Z,6.90
2023-04-02T14:14:12.977Z,6.75
2023-04-02T14:17:01.074Z,6.84
2023-04-02T14:20:00.351Z,6.89
2023-04-02T14:22:44.860Z,6.92
2023-04-02T14:25:48.584Z,7.00
2023-04-02T14:28:39.168Z,7.14
2023-04-02T14:31:28.684Z,6.93
2023-04-02T14:34:21.186Z,6.98
2023-04-02T14:37:17.083Z,7.16
2023-04-02T14:40:04.085Z,7.17
2023-04-02T14:42:42.952Z,7.13
2023-04-02T14:45:57.032Z,7.06
2023-04-02T14:48:35.044Z,7.16
2023-04-02T14:51:13.100Z,7.09
2023-04-02T14:53:58.069Z,7.08
2023-04-02T14:56:26.537Z,7.05
2023-04-02T14:59:06.147Z,7.18
2023-04-02T15:01:40.736Z,7.22
2023-04-02T15:04:21.975Z,7.23
2023-04-02T15:06:55.390Z,7.22
2023-04-02T15:09:33.352Z,7.30
2023-04-02T15:12:26.510Z,7.31
2023-04-02T15:15:29.708Z,7.36
2023-04-02T15:18:01.650Z,7.21
2023-04-02T15:20:49.271Z,7.10
2023-04-02T15:23:35.650Z,7.23
2023-04-02T15:26:06.537Z,7.26
2023-04-02T15:29:27.721Z,7.26
2023-04-02T15:32:19.168Z,7.34
2023-04-02T15:35:18.846Z,7.29
2023-04-02T15:38:04.884Z,7.34
2023-04-02T15:41:04.434Z,7.53
2023-04-02T15:43:43.776Z,7.87
2023-04-02T15:46:50.416Z,7.67
2023-04-02T15:49:47.224Z,7.32
2023-04-02T15:52:33.387Z,7.99
2023-04-02T15:55:26.423Z,8.28
2023-04-02T15:58:20.832Z,8.36
2023-04-02T16:01:53.943Z,7.98
2023-04-02T16:04:49.884Z,7.48
2023-04-02T16:07:51.760Z,7.37
2023-04-02T16:10:43.426Z,7.26
2023-04-02T16:13:30.675Z,7.50
2023-04-02T16:16:13.391Z,7.62
2023-04-02T16:19:17.178Z,7.74
2023-04-02T16:21:58.799Z,7.29
2023-04-02T16:24:27.161Z,7.16
2023-04-02T16:27:15.010Z,7.30
2023-04-02T16:30:12.460Z,7.16
2023-04-02T16:33:15.958Z,7.03
2023-04-02T16:35:51.189Z,6.84
2023-04-02T16:38:37.477Z,6.75
2023-04-02T16:41:36.716Z,6.67
2023-04-02T16:44:24.307Z,6.65
2023-04-02T16:47:15.861Z,6.49
2023-04-02T16:50:24.246Z,6.41
2023-04-02T16:53:14.979Z,6.41
2023-04-02T16:56:04.152Z,6.42
2023-04-02T16:58:47.282Z,6.41
2023-04-02T17:01:39.702Z,6.37
2023-04-02T17:05:00.196Z,6.25
2023-04-02T17:08:13.643Z,6.11
2023-04-02T17:10:57.622Z,5.95
2023-04-02T17:13:47.097Z,5.77
2023-04-02T17:16:31.042Z,5.69
2023-04-02T17:19:01.423Z,5.63
2023-04-02T17:21:31.069Z,5.55
2023-04-02T17:24:53.820Z,5.40
2023-04-02T17:27:29.890Z,5.25
2023-04-02T17:30:34.189Z,5.17
2023-04-02T17:33:11.323Z,5.06
2023-04-02T17:36:00.222Z,4.96
2023-04-02T17:39:07.759Z,4.84
2023-04-02T17:42:13.184Z,4.76
2023-04-02T17:44:51.783Z,4.69
2023-04-02T17:47:45.032Z,4.64
2023-04-02T17:50:31.576Z,4.56
2023-04-02T17:53:24.583Z,4.48
2023-04-02T17:56:27.617Z,4.38
2023-04-02T17:59:29.283Z,4.35
2023-04-02T18:02:29.548Z,4.26
2023-04-02T18:05:30.944Z,4.21
2023-04-02T18:08:33.969Z,4.16
2023-04-02T18:11:29.988Z,4.08
2023-04-02T18:14:35.548Z,4.04
2023-04-02T18:17:34.493Z,3.99
2023-04-02T18:20:27.806Z,3.91
2023-04-02T18:23:12.062Z,3.88
2023-04-02T18:26:01.802Z,3.86
2023-04-02T18:29:14.924Z,3.75
2023-04-02T18:32:17.171Z,3.69
2023-04-02T18:35:26.760Z,3.68
2023-04-02T18:38:06.802Z,3.62
2023-04-02T18:41:19.410Z,3.58
2023-04-02T18:44:19.837Z,3.53
2023-04-02T18:47:22.423Z,3.49
2023-04-02T18:50:11.015Z,3.41
2023-04-02T18:52:41.074Z,3.38
2023-04-02T18:55:27.824Z,3.39
2023-04-02T18:58:04.034Z,3.35
2023-04-02T19:00:37.980Z,3.33
2023-04-02T19:03:21.064Z,3.30
2023-04-02T19:06:00.996Z,3.26
2023-04-02T19:08:38.107Z,3.22
2023-04-02T19:11:16.403Z,3.19
2023-04-02T19:13:45.081Z,3.10
2023-04-02T19:16:44.359Z,3.10
2023-04-02T19:19:26.488Z,3.05
2023-04-02T19:22:29.384Z,3.00
2023-04-02T19:25:29.777Z,2.96
2023-04-02T19:28:12.644Z,2.94
2023-04-02T19:31:03.316Z,2.92
2023-04-02T19:33:59.375Z,2.87
2023-04-02T19:36:55.164Z,2.80
2023-04-02T19:40:04.665Z,2.76
2023-04-02T19:42:41.230Z,2.69
2023-04-02T19:45:39.407Z,2.66
2023-04-02T19:48:17.548Z,2.59
2023-04-02T19:50:46.788Z,2.54
2023-04-02T19:53:15.580Z,2.51
2023-04-02T19:55:44.553Z,2.48
2023-04-02T19:58:31.520Z,2.47
2023-04-02T20:01:00.753Z,2.46
2023-04-02T20:03:30.206Z,2.47
2023-04-02T20:05:59.595Z,2.40
2023-04-02T20:08:28.290Z,2.36
2023-04-02T20:10:58.613Z,2.31
2023-04-02T20:13:26.507Z,2.33
2023-04-02T20:15:54.643Z,2.28
2023-04-02T20:18:22.540Z,2.26
2023-04-02T20:20:50.486Z,2.18
2023-04-02T20:23:18.503Z,2.20
2023-04-02T20:25:53.353Z,2.18
2023-04-02T20:28:23.259Z,2.19
2023-04-02T20:30:51.681Z,2.19
2023-04-02T20:33:24.980Z,2.14
2023-04-02T20:35:52.965Z,2.13
2023-04-02T20:38:20.756Z,2.09
2023-04-02T20:40:52.869Z,2.04
2023-04-02T20:43:21.465Z,1.99
2023-04-02T20:45:57.382Z,1.95
2023-04-02T20:48:28.046Z,1.92
2023-04-02T20:50:57.178Z,1.90
2023-04-02T20:53:25.613Z,1.89
2023-04-02T20:55:53.848Z,1.90
2023-04-02T20:58:21.668Z,1.89
2023-04-02T21:00:49.431Z,1.90
2023-04-02T21:03:19.658Z,1.85
2023-04-02T21:05:48.073Z,1.84
2023-04-02T21:08:15.940Z,1.83
2023-04-02T21:10:43.711Z,1.79
2023-04-02T21:13:11.512Z,1.75
2023-04-02T21:15:43.090Z,1.76
2023-04-02T21:18:11.229Z,1.76
2023-04-02T21:20:39.010Z,1.74
2023-04-02T21:23:06.854Z,1.70
2023-04-02T21:25:35.329Z,1.66
2023-04-02T21:28:03.901Z,1.67
2023-04-02T21:30:33.000Z,1.62
2023-04-02T21:33:00.844Z,1.61
2023-04-02T21:35:28.684Z,1.61
2023-04-02T21:37:56.503Z,1.58
2023-04-02T21:40:24.312Z,1.54
2023-04-02T21:42:52.865Z,1.52
2023-04-02T21:45:20.803Z,1.46
2023-04-02T21:47:48.678Z,1.47
2023-04-02T21:50:16.587Z,1.46
2023-04-02T21:52:44.331Z,1.43
2023-04-02T21:55:12.145Z,1.40
2023-04-02T21:57:40.125Z,1.38
2023-04-02T22:00:12.220Z,1.35
2023-04-02T22:02:40.380Z,1.33
2023-04-02T22:05:08.674Z,1.28
2023-04-02T22:07:36.511Z,1.27
2023-04-02T22:10:04.657Z,1.20
2023-04-02T22:12:32.516Z,1.22
2023-04-02T22:15:00.449Z,1.22
2023-04-02T22:17:28.412Z,1.16
2023-04-02T22:19:56.235Z,1.16
2023-04-02T22:22:24.156Z,1.19
2023-04-02T22:24:51.921Z,1.12
2023-04-02T22:27:19.721Z,1.07
2023-04-02T22:29:47.552Z,1.02
2023-04-02T22:32:15.330Z,1.01
2023-04-02T22:34:45.606Z,1.00
2023-04-02T22:37:13.588Z,0.98
2023-04-02T22:39:41.359Z,0.97
2023-04-02T22:42:09.131Z,0.96
2023-04-02T22:44:36.981Z,0.93
2023-04-02T22:47:04.994Z,0.91
2023-04-02T22:49:32.762Z,0.87
2023-04-02T22:52:00.540Z,0.86
2023-04-02T22:54:28.282Z,0.84
2023-04-02T22:56:56.110Z,0.81
2023-04-02T22:59:24.080Z,0.79
2023-04-02T23:01:51.970Z,0.79
2023-04-02T23:04:19.750Z,0.76
2023-04-02T23:06:47.837Z,0.74
2023-04-02T23:09:15.696Z,0.71
2023-04-02T23:11:43.528Z,0.66
2023-04-02T23:14:11.550Z,0.65
2023-04-02T23:16:39.326Z,0.62
2023-04-02T23:19:07.085Z,0.60
2023-04-02T23:21:34.915Z,0.60
2023-04-02T23:24:02.749Z,0.58
2023-04-02T23:26:31.358Z,0.55
2023-04-02T23:29:00.854Z,0.55
2023-04-02T23:31:29.154Z,0.56
2023-04-02T23:33:57.615Z,0.52
2023-04-02T23:36:32.412Z,0.52
2023-04-02T23:39:09.188Z,0.48
2023-04-02T23:41:39.808Z,0.47
2023-04-02T23:44:09.597Z,0.46
2023-04-02T23:46:37.712Z,0.47
2023-04-02T23:49:05.754Z,0.42
2023-04-02T23:51:33.596Z,0.38
2023-04-02T23:54:01.409Z,0.35
2023-04-02T23:56:29.248Z,0.30
2023-04-02T23:58:57.034Z,0.30
